createdAt,value
2023-02-15T00:01:12.480Z,37.06
2023-02-15T00:03:39.241Z,39.02
2023-02-15T00:06:05.999Z,42.36
2023-02-15T00:08:32.792Z,41.11
2023-02-15T00:11:01.408Z,38.83
2023-02-15T00:13:28.153Z,37.90
2023-02-15T00:15:54.919Z,37.38
2023-02-15T00:18:21.665Z,36.89
2023-02-15T00:20:48.418Z,36.62
2023-02-15T00:23:15.142Z,36.17
2023-02-15T00:25:41.878Z,36.37
2023-02-15T00:28:08.736Z,36.03
2023-02-15T00:30:35.492Z,36.13
2023-02-15T00:33:02.232Z,36.02
2023-02-15T00:35:28.976Z,35.76
2023-02-15T00:37:55.720Z,35.90
2023-02-15T00:40:22.511Z,35.94
2023-02-15T00:42:49.277Z,35.66
2023-02-15T00:45:17.354Z,35.76
2023-02-15T00:47:44.225Z,37.07
2023-02-15T00:50:10.983Z,39.70
2023-02-15T00:52:37.743Z,42.33
2023-02-15T00:55:04.476Z,40.08
2023-02-15T00:57:31.307Z,38.30
2023-02-15T00:59:58.065Z,37.37
2023-02-15T01:02:24.803Z,36.94
2023-02-15T01:04:51.564Z,36.38
2023-02-15T01:07:18.421Z,36.19
2023-02-15T01:09:45.277Z,36.13
2023-02-15T01:12:12.098Z,36.22
2023-02-15T01:14:38.850Z,35.77
2023-02-15T01:17:05.644Z,35.80
2023-02-15T01:19:32.439Z,35.82
2023-02-15T01:21:59.188Z,35.58
2023-02-15T01:24:25.961Z,35.41
2023-02-15T01:26:52.705Z,35.48
2023-02-15T01:29:19.502Z,35.46
2023-02-15T01:31:46.390Z,35.25
2023-02-15T01:34:13.246Z,36.63
2023-02-15T01:36:40.026Z,38.19
2023-02-15T01:39:08.567Z,41.53
2023-02-15T01:41:35.370Z,40.01
2023-02-15T01:44:02.151Z,38.10
2023-02-15T01:46:29.078Z,37.14
2023-02-15T01:48:55.922Z,36.62
2023-02-15T01:51:23.111Z,36.43
2023-02-15T01:56:21.512Z,36.13
2023-02-15T01:58:48.541Z,35.98
2023-02-15T02:01:15.288Z,35.57
2023-02-15T02:03:42.040Z,35.71
2023-02-15T02:06:08.804Z,35.64
2023-02-15T02:08:35.544Z,35.43
2023-02-15T02:11:02.349Z,35.53
2023-02-15T02:13:29.072Z,35.29
2023-02-15T02:15:55.907Z,35.29
2023-02-15T02:18:22.736Z,35.46
2023-02-15T02:20:49.468Z,36.16
2023-02-15T02:23:16.194Z,39.28
2023-02-15T02:25:42.990Z,41.38
2023-02-15T02:28:09.719Z,39.81
2023-02-15T02:30:36.737Z,37.68
2023-02-15T02:33:03.627Z,36.99
2023-02-15T02:35:30.440Z,36.64
2023-02-15T02:37:57.180Z,36.42
2023-02-15T02:40:24.540Z,36.00
2023-02-15T02:42:51.389Z,35.93
2023-02-15T02:45:18.226Z,35.46
2023-02-15T02:47:45.059Z,35.46
2023-02-15T02:50:11.823Z,35.27
2023-02-15T02:52:38.602Z,35.23
2023-02-15T02:55:05.360Z,35.35
2023-02-15T02:57:32.134Z,35.03
2023-02-15T02:59:58.863Z,35.04
2023-02-15T03:02:25.634Z,34.89
2023-02-15T03:04:59.079Z,35.56
2023-02-15T03:07:25.862Z,38.04
2023-02-15T03:09:52.635Z,39.28
2023-02-15T03:12:19.491Z,40.74
2023-02-15T03:14:46.276Z,37.96
2023-02-15T03:17:13.027Z,37.27
2023-02-15T03:19:39.773Z,36.33
2023-02-15T03:22:09.979Z,36.11
2023-02-15T03:24:36.838Z,35.89
2023-02-15T03:27:03.610Z,35.70
2023-02-15T03:29:30.418Z,35.43
2023-02-15T03:31:57.468Z,35.26
2023-02-15T03:34:24.354Z,34.87
2023-02-15T03:36:51.150Z,34.80
2023-02-15T03:39:17.910Z,34.85
2023-02-15T03:41:44.632Z,34.86
2023-02-15T03:44:11.351Z,35.01
2023-02-15T03:46:38.183Z,34.71
2023-02-15T03:49:04.979Z,34.59
2023-02-15T03:51:34.594Z,34.66
2023-02-15T03:54:01.392Z,34.64
2023-02-15T03:56:28.133Z,34.91
2023-02-15T03:59:13.606Z,38.19
2023-02-15T04:01:58.387Z,40.18
2023-02-15T04:04:25.689Z,39.08
2023-02-15T04:06:52.466Z,37.49
2023-02-15T04:09:38.053Z,36.51
2023-02-15T04:12:04.919Z,36.17
2023-02-15T04:14:50.359Z,35.62
2023-02-15T04:17:17.082Z,35.43
2023-02-15T04:20:02.616Z,35.21
2023-02-15T04:22:47.822Z,35.30
2023-02-15T04:25:14.595Z,35.07
2023-02-15T04:27:41.349Z,34.66
2023-02-15T04:30:08.129Z,34.86
2023-02-15T04:32:35.520Z,34.37
2023-02-15T04:35:02.358Z,34.36
2023-02-15T04:37:29.113Z,34.43
2023-02-15T04:39:55.936Z,34.39
2023-02-15T04:42:22.687Z,34.46
2023-02-15T04:44:49.508Z,34.14
2023-02-15T04:47:16.296Z,34.94
2023-02-15T04:49:43.313Z,36.91
2023-02-15T04:52:10.055Z,39.44
2023-02-15T04:54:36.818Z,38.81
2023-02-15T04:57:03.697Z,37.30
2023-02-15T04:59:30.436Z,36.56
2023-02-15T05:01:57.186Z,35.74
2023-02-15T05:04:23.987Z,35.42
2023-02-15T05:06:50.808Z,35.44
2023-02-15T05:09:17.602Z,35.08
2023-02-15T05:11:44.332Z,35.01
2023-02-15T05:14:11.148Z,34.77
2023-02-15T05:16:37.965Z,34.49
2023-02-15T05:19:04.745Z,34.46
2023-02-15T05:21:31.468Z,34.50
2023-02-15T05:23:58.223Z,34.45
2023-02-15T05:26:43.598Z,34.26
2023-02-15T05:29:10.374Z,34.22
2023-02-15T05:31:37.389Z,34.16
2023-02-15T05:34:04.288Z,34.06
2023-02-15T05:36:31.042Z,33.80
2023-02-15T05:38:57.796Z,35.41
2023-02-15T05:41:25.195Z,38.47
2023-02-15T05:43:51.976Z,40.83
2023-02-15T05:46:18.823Z,37.75
2023-02-15T05:48:46.708Z,36.59
2023-02-15T05:51:14.942Z,36.01
2023-02-15T05:53:41.673Z,35.34
2023-02-15T05:56:08.407Z,35.08
2023-02-15T05:58:35.157Z,34.88
2023-02-15T06:01:01.890Z,34.90
2023-02-15T06:03:29.649Z,34.63
2023-02-15T06:05:56.532Z,34.42
2023-02-15T06:08:23.282Z,34.09
2023-02-15T06:10:50.023Z,34.14
2023-02-15T06:13:16.769Z,34.20
2023-02-15T06:15:43.548Z,34.21
2023-02-15T06:18:10.398Z,33.94
2023-02-15T06:20:37.173Z,33.77
2023-02-15T06:23:03.915Z,33.87
2023-02-15T06:25:30.731Z,33.66
2023-02-15T06:27:57.589Z,34.16
2023-02-15T06:30:24.497Z,37.47
2023-02-15T06:32:51.379Z,40.14
2023-02-15T06:35:18.140Z,37.73
2023-02-15T06:37:44.947Z,36.48
2023-02-15T06:40:11.684Z,35.59
2023-02-15T06:42:38.471Z,35.07
2023-02-15T06:45:07.008Z,34.80
2023-02-15T06:47:34.518Z,34.37
2023-02-15T06:50:01.287Z,34.42
2023-02-15T06:52:29.150Z,34.21
2023-02-15T06:54:55.878Z,34.20
2023-02-15T06:57:22.642Z,34.07
2023-02-15T06:59:49.486Z,33.73
2023-02-15T07:02:16.269Z,33.50
2023-02-15T07:04:43.050Z,33.92
2023-02-15T07:07:09.983Z,33.73
2023-02-15T07:09:37.236Z,33.67
2023-02-15T07:12:22.924Z,33.83
2023-02-15T07:14:49.665Z,36.66
2023-02-15T07:17:35.062Z,38.73
2023-02-15T07:20:02.525Z,39.24
2023-02-15T07:22:29.290Z,36.57
2023-02-15T07:24:56.095Z,35.69
2023-02-15T07:27:22.860Z,35.13
2023-02-15T07:29:49.682Z,34.63
2023-02-15T07:32:16.567Z,34.56
2023-02-15T07:34:43.517Z,34.50
2023-02-15T07:37:10.349Z,34.11
2023-02-15T07:39:37.263Z,34.02
2023-02-15T07:42:04.003Z,33.81
2023-02-15T07:44:30.778Z,33.83
2023-02-15T07:46:57.562Z,33.91
2023-02-15T07:49:24.349Z,33.67
2023-02-15T07:51:51.261Z,33.68
2023-02-15T07:54:18.013Z,33.52
2023-02-15T07:56:44.839Z,33.59
2023-02-15T07:59:11.596Z,34.80
2023-02-15T08:01:38.404Z,37.65
2023-02-15T08:04:05.199Z,40.64
2023-02-15T08:06:32.106Z,37.82
2023-02-15T08:08:58.881Z,36.33
2023-02-15T08:11:37.084Z,35.31
2023-02-15T08:14:04.652Z,34.75
2023-02-15T08:16:31.432Z,34.69
2023-02-15T08:18:58.344Z,34.42
2023-02-15T08:21:25.225Z,34.48
2023-02-15T08:23:51.983Z,34.13
2023-02-15T08:26:18.969Z,33.86
2023-02-15T08:28:47.196Z,33.88
2023-02-15T08:31:14.224Z,33.79
2023-02-15T08:33:41.052Z,33.96
2023-02-15T08:36:07.901Z,33.64
2023-02-15T08:38:34.624Z,33.80
2023-02-15T08:41:01.680Z,34.81
2023-02-15T08:43:28.752Z,38.19
2023-02-15T08:45:55.562Z,40.44
2023-02-15T08:48:22.342Z,38.22
2023-02-15T08:50:49.113Z,36.12
2023-02-15T08:53:16.885Z,35.08
2023-02-15T08:55:43.689Z,34.93
2023-02-15T08:58:10.439Z,34.65
2023-02-15T09:00:37.326Z,34.60
2023-02-15T09:03:04.115Z,34.42
2023-02-15T09:05:30.888Z,34.45
2023-02-15T09:07:57.610Z,33.94
2023-02-15T09:10:24.376Z,33.99
2023-02-15T09:12:51.996Z,33.94
2023-02-15T09:15:18.832Z,33.67
2023-02-15T09:17:45.667Z,33.79
2023-02-15T09:20:12.868Z,33.67
2023-02-15T09:22:39.619Z,33.84
2023-02-15T09:25:06.383Z,34.40
2023-02-15T09:27:33.178Z,37.80
2023-02-15T09:30:00.193Z,39.78
2023-02-15T09:32:26.977Z,39.10
2023-02-15T09:34:53.754Z,37.08
2023-02-15T09:37:20.501Z,36.16
2023-02-15T09:39:49.077Z,35.36
2023-02-15T09:42:16.277Z,34.97
2023-02-15T09:44:43.088Z,34.84
2023-02-15T09:47:09.846Z,34.76
2023-02-15T09:49:36.567Z,34.40
2023-02-15T09:52:03.318Z,34.39
2023-02-15T09:54:30.075Z,34.12
2023-02-15T09:56:56.830Z,33.80
2023-02-15T09:59:23.976Z,33.99
2023-02-15T10:01:50.728Z,34.03
2023-02-15T10:04:17.486Z,34.02
2023-02-15T10:06:45.037Z,33.63
2023-02-15T10:09:11.809Z,33.92
2023-02-15T10:11:41.696Z,34.68
2023-02-15T10:14:08.437Z,38.96
2023-02-15T10:16:35.314Z,40.72
2023-02-15T10:19:02.192Z,37.48
2023-02-15T10:21:29.005Z,36.20
2023-02-15T10:23:55.755Z,35.19
2023-02-15T10:26:23.641Z,35.33
2023-02-15T10:28:50.464Z,34.76
2023-02-15T10:31:17.297Z,34.53
2023-02-15T10:33:44.330Z,34.37
2023-02-15T10:36:11.107Z,34.14
2023-02-15T10:38:37.900Z,34.21
2023-02-15T10:41:04.837Z,34.16
2023-02-15T10:43:31.665Z,33.66
2023-02-15T10:45:58.456Z,33.89
2023-02-15T10:48:25.299Z,34.20
2023-02-15T10:50:52.190Z,37.44
2023-02-15T10:53:18.941Z,38.35
2023-02-15T10:55:45.679Z,40.41
2023-02-15T10:58:12.428Z,37.75
2023-02-15T11:00:40.120Z,36.46
2023-02-15T11:03:06.958Z,35.75
2023-02-15T11:05:33.701Z,35.40
2023-02-15T11:08:00.745Z,34.97
2023-02-15T11:10:27.515Z,34.73
2023-02-15T11:12:54.263Z,34.84
2023-02-15T11:15:21.058Z,34.77
2023-02-15T11:17:47.822Z,34.69
2023-02-15T11:20:14.559Z,34.57
2023-02-15T11:22:41.310Z,34.42
2023-02-15T11:25:08.105Z,34.29
2023-02-15T11:27:34.982Z,34.14
2023-02-15T11:30:02.028Z,34.10
2023-02-15T11:32:28.813Z,34.23
2023-02-15T11:34:55.577Z,34.31
2023-02-15T11:37:22.327Z,38.18
2023-02-15T11:39:52.477Z,39.10
2023-02-15T11:42:19.266Z,40.08
2023-02-15T11:44:46.072Z,37.41
2023-02-15T11:47:12.811Z,36.49
2023-02-15T11:49:39.659Z,35.76
2023-02-15T11:52:06.428Z,35.38
2023-02-15T11:54:33.854Z,35.26
2023-02-15T11:57:00.599Z,35.05
2023-02-15T11:59:27.358Z,34.69
2023-02-15T12:01:54.136Z,34.64
2023-02-15T12:04:20.994Z,34.61
2023-02-15T12:06:48.926Z,34.68
2023-02-15T12:09:15.696Z,34.21
2023-02-15T12:11:42.471Z,34.25
2023-02-15T12:14:09.211Z,34.42
2023-02-15T12:16:36.195Z,34.36
2023-02-15T12:19:03.014Z,37.05
2023-02-15T12:21:29.825Z,37.56
2023-02-15T12:23:56.578Z,40.42
2023-02-15T12:26:23.317Z,37.99
2023-02-15T12:28:50.470Z,36.46
2023-02-15T12:31:17.228Z,36.07
2023-02-15T12:33:46.470Z,35.59
2023-02-15T12:36:13.517Z,35.43
2023-02-15T12:38:40.876Z,35.21
2023-02-15T12:41:07.731Z,34.93
2023-02-15T12:43:34.520Z,35.12
2023-02-15T12:46:01.498Z,34.67
2023-02-15T12:48:28.444Z,34.80
2023-02-15T12:50:56.282Z,34.74
2023-02-15T12:53:25.909Z,34.63
2023-02-15T12:55:52.766Z,34.29
2023-02-15T12:58:19.632Z,36.37
2023-02-15T13:00:46.670Z,36.85
2023-02-15T13:03:15.130Z,39.12
2023-02-15T13:05:44.116Z,38.54
2023-02-15T13:08:12.024Z,36.88
2023-02-15T13:10:38.760Z,36.12
2023-02-15T13:13:05.554Z,35.58
2023-02-15T13:15:32.350Z,35.57
2023-02-15T13:17:59.153Z,35.13
2023-02-15T13:20:27.992Z,35.05
2023-02-15T13:22:54.742Z,35.09
2023-02-15T13:25:21.555Z,34.93
2023-02-15T13:27:48.374Z,34.68
2023-02-15T13:30:15.122Z,34.66
2023-02-15T13:32:41.983Z,34.67
2023-02-15T13:35:08.907Z,34.76
2023-02-15T13:37:35.638Z,37.94
2023-02-15T13:40:02.434Z,38.20
2023-02-15T13:42:31.503Z,40.11
2023-02-15T13:44:58.298Z,38.05
2023-02-15T13:47:25.087Z,36.79
2023-02-15T13:49:51.915Z,35.96
2023-02-15T13:52:19.099Z,35.85
2023-02-15T13:54:45.868Z,35.50
2023-02-15T13:57:12.633Z,35.21
2023-02-15T13:59:41.334Z,35.37
2023-02-15T14:02:08.110Z,34.93
2023-02-15T14:04:34.912Z,34.93
2023-02-15T14:07:01.693Z,35.08
2023-02-15T14:09:28.427Z,35.00
2023-02-15T14:11:55.210Z,35.08
2023-02-15T14:14:21.958Z,34.99
2023-02-15T14:17:05.418Z,35.52
2023-02-15T14:19:33.239Z,38.84
2023-02-15T14:22:00.065Z,38.83
2023-02-15T14:24:26.969Z,39.20
2023-02-15T14:26:53.725Z,37.60
2023-02-15T14:29:20.447Z,36.67
2023-02-15T14:31:47.395Z,36.25
2023-02-15T14:34:14.179Z,35.66
2023-02-15T14:36:40.934Z,35.70
2023-02-15T14:39:27.702Z,35.33
2023-02-15T14:41:54.455Z,35.22
2023-02-15T14:44:21.254Z,35.23
2023-02-15T14:46:48.077Z,35.21
2023-02-15T14:49:14.859Z,35.25
2023-02-15T14:51:46.247Z,34.71
2023-02-15T14:54:13.049Z,35.07
2023-02-15T14:56:39.890Z,37.56
2023-02-15T14:59:06.663Z,38.57
2023-02-15T15:01:33.494Z,40.19
2023-02-15T15:04:00.375Z,39.43
2023-02-15T15:06:27.396Z,37.52
2023-02-15T15:08:56.508Z,36.79
2023-02-15T15:11:41.098Z,36.34
2023-02-15T15:14:09.589Z,35.94
2023-02-15T15:16:36.374Z,36.13
2023-02-15T15:19:03.804Z,35.66
2023-02-15T15:21:30.587Z,35.46
2023-02-15T15:23:57.354Z,35.52
2023-02-15T15:26:24.113Z,35.51
2023-02-15T15:28:50.883Z,35.15
2023-02-15T15:31:17.779Z,35.09
2023-02-15T15:33:44.579Z,35.26
2023-02-15T15:36:11.395Z,38.90
2023-02-15T15:38:38.146Z,39.27
2023-02-15T15:41:04.944Z,41.62
2023-02-15T15:43:34.023Z,38.39
2023-02-15T15:46:01.258Z,37.45
2023-02-15T15:48:28.936Z,36.98
2023-02-15T15:50:55.697Z,36.68
2023-02-15T15:53:22.493Z,36.16
2023-02-15T15:55:49.320Z,35.95
2023-02-15T15:58:16.525Z,35.76
2023-02-15T16:00:43.293Z,35.85
2023-02-15T16:03:12.031Z,35.62
2023-02-15T16:05:38.941Z,35.32
2023-02-15T16:08:05.737Z,35.42
2023-02-15T16:10:33.486Z,35.53
2023-02-15T16:13:00.280Z,35.41
2023-02-15T16:15:27.056Z,38.79
2023-02-15T16:17:56.679Z,39.28
2023-02-15T16:20:23.484Z,41.76
2023-02-15T16:22:50.269Z,39.18
2023-02-15T16:25:17.015Z,38.23
2023-02-15T16:27:43.797Z,36.96
2023-02-15T16:30:10.574Z,37.00
2023-02-15T16:32:38.425Z,36.36
2023-02-15T16:35:05.379Z,36.14
2023-02-15T16:37:32.118Z,35.88
2023-02-15T16:39:58.968Z,35.91
2023-02-15T16:42:25.865Z,35.71
2023-02-15T16:44:52.603Z,35.78
2023-02-15T16:47:19.385Z,35.45
2023-02-15T16:49:46.160Z,35.68
2023-02-15T16:52:12.886Z,35.27
2023-02-15T16:54:39.691Z,35.49
2023-02-15T16:57:06.503Z,37.51
2023-02-15T16:59:33.300Z,38.61
2023-02-15T17:02:00.060Z,40.34
2023-02-15T17:04:26.816Z,39.95
2023-02-15T17:06:53.562Z,38.49
2023-02-15T17:09:20.441Z,37.50
2023-02-15T17:11:47.196Z,36.92
2023-02-15T17:14:15.206Z,36.41
2023-02-15T17:16:42.142Z,36.25
2023-02-15T17:19:09.073Z,36.51
2023-02-15T17:21:35.820Z,36.08
2023-02-15T17:24:04.869Z,36.06
2023-02-15T17:26:31.636Z,36.07
2023-02-15T17:28:58.384Z,35.63
2023-02-15T17:31:25.528Z,35.54
2023-02-15T17:33:55.207Z,35.50
2023-02-15T17:36:24.978Z,36.06
2023-02-15T17:38:51.729Z,38.07
2023-02-15T17:41:18.490Z,38.45
2023-02-15T17:43:45.455Z,41.02
2023-02-15T17:46:13.477Z,38.83
2023-02-15T17:48:40.248Z,37.96
2023-02-15T17:51:06.976Z,36.78
2023-02-15T17:53:33.847Z,37.07
2023-02-15T17:56:00.602Z,36.52
2023-02-15T17:58:27.330Z,36.46
2023-02-15T18:01:12.854Z,36.00
2023-02-15T18:03:58.227Z,35.77
2023-02-15T18:06:43.636Z,36.10
2023-02-15T18:09:28.924Z,35.45
2023-02-15T18:11:55.844Z,35.60
2023-02-15T18:14:22.583Z,35.58
2023-02-15T18:16:49.411Z,35.59
2023-02-15T18:19:16.550Z,36.58
2023-02-15T18:21:43.345Z,38.02
2023-02-15T18:24:10.093Z,38.47
2023-02-15T18:26:36.851Z,40.35
2023-02-15T18:29:03.590Z,38.53
2023-02-15T18:31:30.658Z,37.46
2023-02-15T18:33:57.423Z,36.72
2023-02-15T18:36:24.249Z,36.97
2023-02-15T18:38:51.112Z,36.36
2023-02-15T18:41:18.513Z,36.29
2023-02-15T18:43:45.270Z,35.96
2023-02-15T18:46:12.046Z,36.00
2023-02-15T18:48:38.915Z,35.79
2023-02-15T18:51:08.102Z,36.01
2023-02-15T18:53:34.825Z,35.89
2023-02-15T18:56:01.731Z,35.71
2023-02-15T18:58:28.733Z,37.60
2023-02-15T19:00:56.371Z,38.07
2023-02-15T19:03:23.156Z,39.93
2023-02-15T19:05:49.897Z,39.21
2023-02-15T19:08:16.794Z,38.25
2023-02-15T19:13:10.874Z,37.04
2023-02-15T19:15:37.685Z,36.78
2023-02-15T19:18:04.421Z,36.53
2023-02-15T19:20:31.160Z,36.13
2023-02-15T19:22:57.970Z,36.10
2023-02-15T19:25:24.750Z,35.91
2023-02-15T19:27:51.555Z,35.54
2023-02-15T19:30:18.393Z,35.97
2023-02-15T19:32:45.215Z,35.70
2023-02-15T19:35:11.957Z,36.31
2023-02-15T19:37:42.192Z,37.95
2023-02-15T19:40:09.194Z,38.24
2023-02-15T19:42:35.917Z,40.63
2023-02-15T19:45:02.709Z,39.38
2023-02-15T19:47:29.462Z,37.89
2023-02-15T19:50:01.111Z,36.95
2023-02-15T19:52:27.856Z,36.86
2023-02-15T19:54:54.604Z,36.79
2023-02-15T19:57:21.626Z,36.57
2023-02-15T19:59:48.421Z,36.11
2023-02-15T20:02:15.230Z,36.03
2023-02-15T20:04:42.070Z,36.11
2023-02-15T20:07:08.842Z,35.89
2023-02-15T20:09:37.890Z,35.89
2023-02-15T20:12:04.662Z,35.97
2023-02-15T20:14:31.553Z,35.67
2023-02-15T20:16:58.349Z,36.89
2023-02-15T20:19:25.073Z,37.74
2023-02-15T20:21:54.459Z,38.98
2023-02-15T20:24:21.388Z,39.94
2023-02-15T20:26:48.213Z,38.54
2023-02-15T20:29:15.184Z,37.50
2023-02-15T20:31:42.013Z,37.07
2023-02-15T20:34:08.847Z,36.84
2023-02-15T20:36:35.584Z,36.46
2023-02-15T20:39:02.352Z,36.45
2023-02-15T20:41:46.838Z,36.25
2023-02-15T20:44:13.615Z,36.07
2023-02-15T20:46:40.422Z,36.14
2023-02-15T20:49:07.213Z,36.09
2023-02-15T20:51:33.999Z,35.95
2023-02-15T20:54:00.736Z,35.88
2023-02-15T20:56:27.473Z,36.16
2023-02-15T20:58:54.394Z,37.83
2023-02-15T21:01:21.316Z,38.20
2023-02-15T21:03:48.238Z,40.49
2023-02-15T21:06:15.038Z,39.31
2023-02-15T21:08:41.865Z,37.99
2023-02-15T21:11:08.612Z,37.19
2023-02-15T21:13:35.431Z,36.91
2023-02-15T21:16:02.185Z,36.41
2023-02-15T21:18:28.977Z,36.63
2023-02-15T21:20:55.789Z,36.29
2023-02-15T21:23:22.575Z,36.01
2023-02-15T21:25:49.342Z,35.61
2023-02-15T21:28:16.090Z,35.84
2023-02-15T21:30:42.855Z,35.73
2023-02-15T21:33:09.630Z,35.63
2023-02-15T21:35:37.589Z,35.50
2023-02-15T21:38:04.338Z,36.78
2023-02-15T21:40:31.144Z,37.49
2023-02-15T21:43:16.596Z,39.03
2023-02-15T21:46:01.949Z,39.51
2023-02-15T21:48:28.698Z,37.90
2023-02-15T21:51:14.121Z,37.27
2023-02-15T21:53:42.458Z,36.82
2023-02-15T21:56:09.202Z,36.41
2023-02-15T21:58:35.942Z,36.34
2023-02-15T22:01:03.066Z,36.15
2023-02-15T22:03:30.062Z,35.81
2023-02-15T22:05:57.103Z,35.98
2023-02-15T22:08:23.850Z,35.68
2023-02-15T22:10:50.793Z,35.76
2023-02-15T22:13:17.560Z,35.59
2023-02-15T22:15:46.460Z,35.27
2023-02-15T22:18:13.202Z,35.69
2023-02-15T22:20:39.931Z,37.08
2023-02-15T22:23:09.625Z,38.99
2023-02-15T22:25:36.448Z,41.22
2023-02-15T22:28:03.185Z,40.12
2023-02-15T22:30:30.106Z,38.16
2023-02-15T22:32:56.968Z,37.44
2023-02-15T22:35:23.748Z,36.88
2023-02-15T22:37:50.490Z,36.48
2023-02-15T22:40:17.312Z,36.42
2023-02-15T22:42:44.061Z,36.03
2023-02-15T22:45:10.839Z,35.95
2023-02-15T22:47:37.661Z,36.01
2023-02-15T22:50:04.412Z,35.68
2023-02-15T22:52:31.173Z,35.87
2023-02-15T22:54:57.927Z,35.57
2023-02-15T22:57:24.671Z,35.44
2023-02-15T22:59:51.435Z,35.47
2023-02-15T23:02:18.177Z,35.58
2023-02-15T23:04:44.910Z,35.13
2023-02-15T23:07:11.655Z,37.16
2023-02-15T23:09:38.382Z,36.42
2023-02-15T23:12:05.133Z,39.38
2023-02-15T23:14:31.887Z,38.86
2023-02-15T23:16:58.699Z,37.43
2023-02-15T23:19:25.470Z,36.86
2023-02-15T23:21:52.218Z,36.25
2023-02-15T23:24:19.027Z,36.15
2023-02-15T23:26:45.771Z,36.13
2023-02-15T23:29:12.517Z,35.87
2023-02-15T23:31:39.346Z,35.62
2023-02-15T23:34:06.121Z,35.63
2023-02-15T23:36:33.090Z,35.53
2023-02-15T23:39:19.823Z,35.39
2023-02-15T23:41:46.568Z,35.08
2023-02-15T23:44:13.311Z,35.15
2023-02-15T23:46:40.054Z,35.23
2023-02-15T23:49:14.810Z,36.51
2023-02-15T23:51:41.701Z,37.00
2023-02-15T23:54:08.439Z,39.07
2023-02-15T23:56:35.206Z,38.81
2023-02-15T23:59:01.934Z,37.59
